Change the Weather History Date:

Friday, January 31, 2014

  Actual Average Record
Temperature  
Mean Temperature -2 °F -  
Max Temperature 10 °F 24 °F 48 °F (1989)
Min Temperature -14 °F 2 °F -30 °F (1985)
Degree Days  
Heating Degree Days 67    
Moisture  
Dew Point -12 °F    
Average Humidity 59    
Maximum Humidity 71    
Minimum Humidity 41    
Precipitation  
Precipitation 0.00 in - - ()
Sea Level Pressure  
Sea Level Pressure 30.07 in    
Wind  
Wind Speed 4 mph (South)    
Max Wind Speed 8 mph    
Max Gust Speed -    
Visibility 10 miles    
Events      
Averages and records for this station are not official NWS values.
T = Trace of Precipitation, MM = Missing Value Source: NWS Daily Summary

Daily Weather History Graph

Daily Weather History Graph

Search for Another Location

Airport or City:

Trip Planner

Search our weather history database for the weather conditions in past years. The results will help you decide how hot, cold, wet, or windy it might be!

Date:

Astronomy

Jan. 31, 2014 Rise Set
Actual Time 7:32 AM CST 5:21 PM CST
Civil Twilight 7:01 AM CST 5:52 PM CST
Nautical Twilight 6:26 AM CST 6:27 PM CST
Astronomical Twilight 5:52 AM CST 7:01 PM CST
Moon 7:38 AM CST (1/31) 6:51 PM CST (1/31)
Length of Visible Light 10h 50m
Length of Day
9h 49m
New Moon, 1% of the Moon is Illuminated
Jan 31
New Moon
Feb 6
First Quarter
Feb 14
Full
Feb 22
Last Quarter
Mar 1
New

Hourly Weather History & Observations

Time (CST) Temp. Windchill Dew Point Humidity Pressure Visibility Wind Dir Wind Speed Gust Speed Precip Events Conditions
12:14 AM -0.4 °F -12.0 °F -11.2 °F 60% 30.05 in 10.0 mi West 5.8 mph - N/A   Clear
12:34 AM -2.2 °F - -13.0 °F 60% 30.06 in 10.0 mi Calm Calm - N/A   Clear
12:53 AM -2.2 °F -12.5 °F -13.0 °F 60% 30.06 in 10.0 mi West 4.6 mph - N/A   Clear
1:14 AM -4.0 °F -14.6 °F -13.0 °F 65% 30.05 in 10.0 mi West 4.6 mph - N/A   Clear
1:34 AM -4.0 °F -14.6 °F -13.0 °F 65% 30.05 in 10.0 mi West 4.6 mph - N/A   Clear
1:54 AM -5.8 °F -16.7 °F -14.8 °F 65% 30.08 in 10.0 mi SSW 4.6 mph - N/A   Clear
2:14 AM -5.8 °F -16.7 °F -14.8 °F 65% 30.08 in 10.0 mi SW 4.6 mph - N/A   Clear
2:34 AM -5.8 °F -16.7 °F -14.8 °F 65% 30.09 in 10.0 mi SW 4.6 mph - N/A   Clear
2:54 AM -5.8 °F - -14.8 °F 65% - 10.0 mi Calm Calm - N/A   Clear
3:14 AM -5.8 °F - -14.8 °F 65% 30.08 in 10.0 mi Calm Calm - N/A   Clear
3:34 AM -7.6 °F - -14.8 °F 71% 30.07 in 10.0 mi Calm Calm - N/A   Clear
3:54 AM -5.8 °F -14.5 °F -14.8 °F 65% 30.07 in 10.0 mi SSW 3.5 mph - N/A   Clear
4:14 AM -7.6 °F - -16.6 °F 65% 30.07 in 10.0 mi Calm Calm - N/A   Clear
4:34 AM -9.4 °F - -16.6 °F 71% 30.06 in 10.0 mi Calm Calm - N/A   Clear
4:54 AM -9.4 °F - -18.4 °F 65% 30.07 in 10.0 mi Calm Calm - N/A   Clear
5:13 AM -9.4 °F -20.9 °F -18.4 °F 65% 30.07 in 10.0 mi West 4.6 mph - N/A   Clear
5:34 AM -7.6 °F -16.5 °F -16.6 °F 65% 30.07 in 10.0 mi West 3.5 mph - N/A   Clear
5:54 AM -9.4 °F - -18.4 °F 65% 30.06 in 10.0 mi Calm Calm - N/A   Clear
6:14 AM -9.4 °F - -18.4 °F 65% 30.08 in 10.0 mi Calm Calm - N/A   Clear
6:34 AM -13.0 °F - -22.0 °F 64% 30.08 in 10.0 mi Calm Calm - N/A   Clear
6:54 AM -11.2 °F - -20.2 °F 64% 30.08 in 10.0 mi Calm Calm - N/A   Clear
7:14 AM -11.2 °F - -20.2 °F 64% 30.09 in 10.0 mi Calm Calm - N/A   Clear
7:34 AM -13.0 °F - -20.2 °F 70% 30.10 in 10.0 mi Calm Calm - N/A   Clear
7:53 AM -13.0 °F - -22.0 °F 64% 30.09 in 10.0 mi Calm Calm - N/A   Clear
8:14 AM -14.8 °F - -23.8 °F 64% 30.09 in 10.0 mi Calm Calm - N/A   Clear
8:33 AM -11.2 °F - -20.2 °F 64% 30.10 in 10.0 mi Calm Calm - N/A   Clear
8:54 AM -7.6 °F -16.5 °F -16.6 °F 65% 30.12 in 10.0 mi SSW 3.5 mph - N/A   Clear
9:14 AM -5.8 °F -18.4 °F -14.8 °F 65% 30.13 in 10.0 mi SSW 5.8 mph - N/A   Clear
9:34 AM -4.0 °F -17.8 °F -14.8 °F 60% 30.14 in 10.0 mi SSW 6.9 mph - N/A   Clear
9:54 AM -2.2 °F -10.4 °F -13.0 °F 60% 30.14 in 10.0 mi South 3.5 mph - N/A   Clear
10:13 AM -2.2 °F -14.2 °F -14.8 °F 55% 30.15 in 10.0 mi South 5.8 mph - N/A   Clear
10:34 AM -0.4 °F -12.0 °F -11.2 °F 60% 30.15 in 10.0 mi South 5.8 mph - N/A   Clear
10:53 AM 1.4 °F -9.9 °F -11.2 °F 56% 30.15 in 10.0 mi SSW 5.8 mph - N/A   Clear
11:14 AM 3.2 °F -7.8 °F -9.4 °F 56% 30.15 in 10.0 mi SSW 5.8 mph - N/A   Clear
11:34 AM 3.2 °F -6.2 °F -9.4 °F 56% 30.14 in 10.0 mi SSW 4.6 mph - N/A   Clear
11:54 AM 5.0 °F -8.1 °F -9.4 °F 52% 30.14 in 10.0 mi SSW 8.1 mph - N/A   Clear
12:14 PM 6.8 °F -4.8 °F -9.4 °F 48% 30.14 in 10.0 mi South 6.9 mph - N/A   Clear
12:34 PM 6.8 °F -4.8 °F -9.4 °F 48% 30.13 in 10.0 mi SW 6.9 mph - N/A   Clear
12:54 PM 8.6 °F -1.3 °F -9.4 °F 44% 30.12 in 10.0 mi South 5.8 mph - N/A   Clear
1:14 PM 8.6 °F 0.1 °F -9.4 °F 44% 30.11 in 10.0 mi South 4.6 mph - N/A   Clear
1:34 PM 8.6 °F -3.7 °F -9.4 °F 44% 30.11 in 10.0 mi SSW 8.1 mph - N/A   Clear
1:54 PM 8.6 °F 0.1 °F -9.4 °F 44% 30.09 in 10.0 mi South 4.6 mph - N/A   Clear
2:14 PM 10.4 °F 2.2 °F -7.6 °F 44% 30.08 in 10.0 mi SSW 4.6 mph - N/A   Clear
2:34 PM 10.4 °F 0.8 °F -7.6 °F 44% 30.08 in 10.0 mi SSE 5.8 mph - N/A   Clear
2:54 PM 10.4 °F 0.8 °F -7.6 °F 44% 30.07 in 10.0 mi South 5.8 mph - N/A   Clear
3:14 PM 10.4 °F -0.4 °F -7.6 °F 44% 30.07 in 10.0 mi South 6.9 mph - N/A   Clear
3:34 PM 10.4 °F 0.8 °F -9.4 °F 41% 30.07 in 10.0 mi South 5.8 mph - N/A   Clear
3:54 PM 10.4 °F 0.8 °F -7.6 °F 44% 30.07 in 10.0 mi South 5.8 mph - N/A   Clear
4:13 PM 8.6 °F -2.6 °F -7.6 °F 48% 30.07 in 10.0 mi SSE 6.9 mph - N/A   Clear
4:34 PM 8.6 °F -2.6 °F -5.8 °F 52% 30.06 in 10.0 mi SSE 6.9 mph - N/A   Clear
4:54 PM 8.6 °F -1.3 °F -5.8 °F 52% 30.06 in 10.0 mi SSE 5.8 mph - N/A   Clear
5:14 PM 6.8 °F -3.5 °F -7.6 °F 52% 30.04 in 10.0 mi SSE 5.8 mph - N/A   Clear
5:34 PM 6.8 °F -2.0 °F -7.6 °F 52% 30.04 in 10.0 mi South 4.6 mph - N/A   Clear
5:53 PM 5.0 °F -4.1 °F -7.6 °F 56% 30.04 in 10.0 mi South 4.6 mph - N/A   Clear
6:14 PM 5.0 °F -4.1 °F -7.6 °F 56% 30.04 in 10.0 mi South 4.6 mph - N/A   Clear
6:33 PM 3.2 °F -6.2 °F -7.6 °F 61% 30.03 in 10.0 mi SSE 4.6 mph - N/A   Clear
6:54 PM 3.2 °F -4.2 °F -7.6 °F 61% 30.03 in 10.0 mi SSE 3.5 mph - N/A   Clear
7:14 PM 3.2 °F -7.8 °F -7.6 °F 61% 30.02 in 10.0 mi SSE 5.8 mph - N/A   Clear
7:34 PM 3.2 °F -4.2 °F -7.6 °F 61% 30.02 in 10.0 mi South 3.5 mph - N/A   Clear
7:54 PM 3.2 °F -6.2 °F -7.6 °F 61% 30.02 in 10.0 mi South 4.6 mph - N/A   Clear
8:13 PM 3.2 °F -7.8 °F -7.6 °F 61% 30.02 in 10.0 mi South 5.8 mph - N/A   Clear
8:34 PM 3.2 °F -6.2 °F -7.6 °F 61% 30.03 in 10.0 mi South 4.6 mph - N/A   Clear
8:53 PM 1.4 °F -9.9 °F -7.6 °F 66% 30.02 in 10.0 mi South 5.8 mph - N/A   Clear
9:14 PM 3.2 °F -6.2 °F -7.6 °F 61% 30.02 in 10.0 mi South 4.6 mph - N/A   Clear
9:34 PM 1.4 °F -8.3 °F -7.6 °F 66% 30.01 in 10.0 mi South 4.6 mph - N/A   Clear
9:53 PM 1.4 °F -6.2 °F -7.6 °F 66% 30.00 in 10.0 mi South 3.5 mph - N/A   Clear
10:14 PM 1.4 °F -8.3 °F -7.6 °F 66% 30.01 in 10.0 mi South 4.6 mph - N/A   Clear
10:34 PM 1.4 °F -6.2 °F -7.6 °F 66% 30.01 in 10.0 mi SSE 3.5 mph - N/A   Clear
10:54 PM 3.2 °F -7.8 °F -7.6 °F 61% 30.02 in 10.0 mi South 5.8 mph - N/A   Clear
11:14 PM 3.2 °F -9.1 °F -5.8 °F 66% 30.02 in 10.0 mi South 6.9 mph - N/A   Clear
11:33 PM 5.0 °F -5.6 °F -5.8 °F 61% 30.01 in 10.0 mi South 5.8 mph - N/A   Clear
11:54 PM 6.8 °F -3.5 °F -5.8 °F 56% 30.00 in 10.0 mi South 5.8 mph - N/A   Scattered Clouds